createdAt,value
2019-05-12T00:00:18.364Z,12.55
2019-05-12T00:02:50.184Z,12.52
2019-05-12T00:05:22.047Z,12.58
2019-05-12T00:07:53.757Z,12.51
2019-05-12T00:10:28.059Z,12.51
2019-05-12T00:12:59.203Z,12.56
2019-05-12T00:15:30.853Z,12.58
2019-05-12T00:18:03.016Z,12.59
2019-05-12T00:20:34.565Z,12.59
2019-05-12T00:23:23.290Z,12.61
2019-05-12T00:25:41.567Z,12.60
2019-05-12T00:28:13.702Z,12.66
2019-05-12T00:30:48.761Z,12.71
2019-05-12T00:33:20.525Z,12.74
2019-05-12T00:35:52.114Z,12.79
2019-05-12T00:38:23.696Z,12.72
2019-05-12T00:40:58.137Z,12.63
2019-05-12T00:43:29.127Z,12.59
2019-05-12T00:46:00.685Z,12.59
2019-05-12T00:48:32.361Z,12.60
2019-05-12T00:51:04.222Z,12.50
2019-05-12T00:53:42.716Z,12.29
2019-05-12T00:56:09.910Z,12.07
2019-05-12T00:58:41.720Z,11.96
2019-05-12T01:01:13.305Z,12.02
2019-05-12T01:03:45.086Z,12.04
2019-05-12T01:06:17.843Z,12.06
2019-05-12T01:08:49.614Z,12.12
2019-05-12T01:11:21.585Z,12.02
2019-05-12T01:13:53.528Z,11.96
2019-05-12T01:16:25.433Z,11.88
2019-05-12T01:18:58.718Z,11.92
2019-05-12T01:21:30.347Z,11.89
2019-05-12T01:24:03.451Z,11.88
2019-05-12T01:26:35.505Z,11.81
2019-05-12T01:29:08.390Z,11.75
2019-05-12T01:31:41.965Z,11.72
2019-05-12T01:34:13.625Z,11.78
2019-05-12T01:36:45.139Z,11.85
2019-05-12T01:39:18.730Z,11.90
2019-05-12T01:41:50.430Z,11.93
2019-05-12T01:44:22.118Z,12.00
2019-05-12T01:46:53.879Z,12.06
2019-05-12T01:49:25.815Z,12.10
2019-05-12T01:51:58.216Z,12.18
2019-05-12T01:54:30.036Z,12.20
2019-05-12T01:57:01.620Z,12.22
2019-05-12T01:59:33.588Z,12.25
2019-05-12T02:02:05.759Z,12.26
2019-05-12T02:04:45.157Z,12.18
2019-05-12T02:07:18.529Z,12.07
2019-05-12T02:09:50.254Z,11.96
2019-05-12T02:12:21.762Z,11.80
2019-05-12T02:14:53.966Z,11.76
2019-05-12T02:17:28.338Z,11.72
2019-05-12T02:19:59.438Z,11.79
2019-05-12T02:22:31.150Z,11.82
2019-05-12T02:25:03.213Z,11.67
2019-05-12T02:27:35.126Z,11.56
2019-05-12T02:30:10.221Z,11.47
2019-05-12T02:32:49.509Z,11.41
2019-05-12T02:35:16.300Z,11.53
2019-05-12T02:37:47.951Z,11.47
2019-05-12T02:40:24.884Z,11.32
2019-05-12T02:42:58.288Z,11.38
2019-05-12T02:45:30.427Z,11.39
2019-05-12T02:48:05.072Z,11.35
2019-05-12T02:50:37.891Z,11.32
2019-05-12T02:53:09.941Z,11.34
2019-05-12T02:55:45.070Z,11.29
2019-05-12T02:58:17.258Z,11.29
2019-05-12T03:00:49.066Z,11.22
2019-05-12T03:03:25.067Z,11.24
2019-05-12T03:05:58.896Z,11.29
2019-05-12T03:08:34.912Z,11.37
2019-05-12T03:11:06.993Z,11.42
2019-05-12T03:13:39.879Z,11.46
2019-05-12T03:16:14.914Z,11.53
2019-05-12T03:18:45.850Z,11.57
2019-05-12T03:21:17.963Z,11.63
2019-05-12T03:23:50.003Z,11.64
2019-05-12T03:26:24.683Z,11.63
2019-05-12T03:28:55.750Z,11.70
2019-05-12T03:31:31.218Z,11.79
2019-05-12T03:34:08.048Z,11.88
2019-05-12T03:36:41.122Z,11.93
2019-05-12T03:39:09.615Z,11.97
2019-05-12T03:41:44.343Z,12.04
2019-05-12T03:44:15.408Z,12.16
2019-05-12T03:46:47.093Z,12.15
2019-05-12T03:49:18.959Z,12.21
2019-05-12T03:51:54.224Z,12.27
2019-05-12T03:54:24.744Z,12.34
2019-05-12T03:56:56.457Z,12.42
2019-05-12T03:59:28.306Z,12.48
2019-05-12T04:02:00.129Z,12.55
2019-05-12T04:04:34.749Z,12.61
2019-05-12T04:07:05.644Z,12.72
2019-05-12T04:09:37.277Z,12.86
2019-05-12T04:12:08.885Z,12.98
2019-05-12T04:14:40.788Z,13.05
2019-05-12T04:17:14.974Z,13.14
2019-05-12T04:19:45.636Z,13.19
2019-05-12T04:22:18.009Z,13.30
2019-05-12T04:24:49.758Z,13.33
2019-05-12T04:27:25.082Z,13.45
2019-05-12T04:29:57.378Z,13.52
2019-05-12T04:32:29.448Z,13.57
2019-05-12T04:35:04.540Z,13.68
2019-05-12T04:37:35.470Z,13.67
2019-05-12T04:40:07.877Z,13.77
2019-05-12T04:42:40.087Z,13.87
2019-05-12T04:45:15.551Z,13.89
2019-05-12T04:47:46.229Z,13.92
2019-05-12T04:50:18.332Z,13.96
2019-05-12T04:52:50.836Z,14.05
2019-05-12T04:55:25.622Z,14.12
2019-05-12T04:57:56.277Z,14.22
2019-05-12T05:00:27.833Z,14.28
2019-05-12T05:02:59.856Z,14.31
2019-05-12T05:05:35.030Z,14.35
2019-05-12T05:08:05.935Z,14.43
2019-05-12T05:10:37.481Z,14.51
2019-05-12T05:13:09.362Z,14.64
2019-05-12T05:15:43.976Z,14.72
2019-05-12T05:18:14.529Z,14.75
2019-05-12T05:20:46.066Z,14.81
2019-05-12T05:23:18.025Z,14.95
2019-05-12T05:25:49.865Z,14.93
2019-05-12T05:28:23.518Z,14.99
2019-05-12T05:30:55.026Z,15.06
2019-05-12T05:33:26.955Z,15.20
2019-05-12T05:35:58.917Z,15.33
2019-05-12T05:38:31.029Z,15.41
2019-05-12T05:41:05.860Z,15.50
2019-05-12T05:43:36.285Z,15.62
2019-05-12T05:46:09.591Z,15.77
2019-05-12T05:48:43.940Z,15.86
2019-05-12T05:51:15.734Z,15.90
2019-05-12T05:53:49.788Z,16.06
2019-05-12T05:56:31.659Z,16.15
2019-05-12T05:58:55.216Z,16.22
2019-05-12T06:01:27.888Z,16.39
2019-05-12T06:04:04.309Z,16.47
2019-05-12T06:06:34.160Z,16.57
2019-05-12T06:09:07.273Z,16.67
2019-05-12T06:11:38.913Z,16.74
2019-05-12T06:14:13.085Z,16.70
2019-05-12T06:16:44.266Z,16.79
2019-05-12T06:19:16.426Z,16.91
2019-05-12T06:21:48.291Z,17.08
2019-05-12T06:24:20.421Z,17.30
2019-05-12T06:26:57.774Z,17.25
2019-05-12T06:29:26.856Z,17.47
2019-05-12T06:32:00.155Z,17.62
2019-05-12T06:34:34.177Z,17.70
2019-05-12T06:37:11.907Z,17.77
2019-05-12T06:39:39.389Z,17.98
2019-05-12T06:42:14.161Z,18.08
2019-05-12T06:44:48.968Z,18.14
2019-05-12T06:47:18.506Z,18.06
2019-05-12T06:49:56.401Z,18.14
2019-05-12T06:52:24.229Z,18.15
2019-05-12T06:54:56.834Z,18.04
2019-05-12T06:57:28.977Z,17.93
2019-05-12T07:00:00.823Z,17.92
2019-05-12T07:02:36.658Z,17.94
2019-05-12T07:05:07.288Z,18.05
2019-05-12T07:07:46.009Z,18.16
2019-05-12T07:10:34.326Z,18.24
2019-05-12T07:13:00.782Z,18.37
2019-05-12T07:15:20.636Z,18.51
2019-05-12T07:17:55.752Z,18.68
2019-05-12T07:20:29.312Z,18.80
2019-05-12T07:23:00.974Z,18.88
2019-05-12T07:25:36.300Z,18.83
2019-05-12T07:28:08.017Z,18.87
2019-05-12T07:30:39.841Z,18.95
2019-05-12T07:33:11.628Z,19.19
2019-05-12T07:35:44.508Z,19.39
2019-05-12T07:38:21.508Z,19.37
2019-05-12T07:40:53.573Z,19.44
2019-05-12T07:43:27.729Z,19.51
2019-05-12T07:46:02.552Z,19.62
2019-05-12T07:48:33.502Z,19.57
2019-05-12T07:51:05.386Z,19.64
2019-05-12T07:53:37.022Z,19.76
2019-05-12T07:56:08.589Z,20.01
2019-05-12T07:58:40.900Z,20.29
2019-05-12T08:01:14.605Z,20.37
2019-05-12T08:03:50.853Z,20.44
2019-05-12T08:06:19.628Z,20.60
2019-05-12T08:08:56.588Z,20.59
2019-05-12T08:11:28.841Z,20.73
2019-05-12T08:13:57.987Z,20.79
2019-05-12T08:16:33.697Z,20.77
2019-05-12T08:19:03.996Z,20.87
2019-05-12T08:21:43.462Z,20.98
2019-05-12T08:24:08.826Z,21.14
2019-05-12T08:26:40.641Z,21.23
2019-05-12T08:29:17.028Z,21.38
2019-05-12T08:31:45.970Z,21.41
2019-05-12T08:34:18.381Z,21.38
2019-05-12T08:36:53.264Z,21.31
2019-05-12T08:39:25.943Z,21.28
2019-05-12T08:41:56.379Z,21.34
2019-05-12T08:44:33.849Z,21.52
2019-05-12T08:47:03.762Z,21.76
2019-05-12T08:49:50.118Z,21.82
2019-05-12T08:52:07.737Z,21.77
2019-05-12T08:54:39.653Z,21.73
2019-05-12T08:57:14.388Z,21.80
2019-05-12T08:59:45.849Z,21.98
2019-05-12T09:02:17.437Z,22.07
2019-05-12T09:04:51.537Z,22.11
2019-05-12T09:07:24.283Z,22.30
2019-05-12T09:09:55.755Z,22.39
2019-05-12T09:12:27.123Z,22.31
2019-05-12T09:14:58.959Z,22.13
2019-05-12T09:17:30.633Z,21.67
2019-05-12T09:20:08.136Z,21.41
2019-05-12T09:22:35.578Z,21.62
2019-05-12T09:25:08.617Z,21.90
2019-05-12T09:27:47.975Z,22.13
2019-05-12T09:30:19.844Z,22.22
2019-05-12T09:32:55.491Z,22.35
2019-05-12T09:35:28.583Z,22.36
2019-05-12T09:37:57.983Z,22.25
2019-05-12T09:40:29.686Z,22.23
2019-05-12T09:43:06.240Z,22.47
2019-05-12T09:45:40.214Z,22.57
2019-05-12T09:48:09.548Z,22.86
2019-05-12T09:50:44.200Z,22.93
2019-05-12T09:53:15.399Z,23.11
2019-05-12T09:55:46.871Z,22.90
2019-05-12T09:58:22.914Z,22.56
2019-05-12T10:00:54.312Z,22.15
2019-05-12T10:03:25.387Z,22.20
2019-05-12T10:05:57.037Z,22.41
2019-05-12T10:08:29.323Z,22.40
2019-05-12T10:11:03.800Z,22.42
2019-05-12T10:13:35.483Z,22.28
2019-05-12T10:16:08.798Z,21.94
2019-05-12T10:18:45.354Z,22.08
2019-05-12T10:21:15.543Z,21.98
2019-05-12T10:23:51.445Z,22.22
2019-05-12T10:26:21.070Z,22.26
2019-05-12T10:28:58.065Z,22.43
2019-05-12T10:31:29.733Z,22.55
2019-05-12T10:34:17.099Z,22.64
2019-05-12T10:36:53.877Z,22.73
2019-05-12T10:39:25.826Z,22.94
2019-05-12T10:41:57.493Z,22.97
2019-05-12T10:44:36.206Z,22.97
2019-05-12T10:47:04.694Z,22.87
2019-05-12T10:49:37.181Z,22.81
2019-05-12T10:52:08.841Z,22.88
2019-05-12T10:54:40.697Z,22.68
2019-05-12T10:57:14.154Z,22.64
2019-05-12T10:59:48.626Z,22.63
2019-05-12T11:02:20.537Z,22.65
2019-05-12T11:04:54.164Z,22.74
2019-05-12T11:07:28.196Z,22.87
2019-05-12T11:10:05.600Z,22.89
2019-05-12T11:12:34.035Z,22.99
2019-05-12T11:15:10.254Z,22.92
2019-05-12T11:17:53.426Z,22.62
2019-05-12T11:20:25.367Z,22.70
2019-05-12T11:22:57.371Z,22.78
2019-05-12T11:25:29.349Z,22.47
2019-05-12T11:28:03.435Z,22.40
2019-05-12T11:30:34.812Z,22.27
2019-05-12T11:33:06.449Z,22.02
2019-05-12T11:35:38.199Z,21.93
2019-05-12T11:38:09.856Z,21.76
2019-05-12T11:40:43.562Z,21.78
2019-05-12T11:43:14.623Z,21.72
2019-05-12T11:45:46.442Z,21.76
2019-05-12T11:48:18.061Z,21.86
2019-05-12T11:50:51.381Z,21.90
2019-05-12T11:53:30.320Z,21.97
2019-05-12T11:55:56.683Z,22.18
2019-05-12T11:58:28.891Z,22.36
2019-05-12T12:01:04.761Z,22.46
2019-05-12T12:03:37.442Z,22.41
2019-05-12T12:06:09.309Z,22.32
2019-05-12T12:08:41.102Z,22.21
2019-05-12T12:11:18.871Z,21.98
2019-05-12T12:13:46.121Z,21.75
2019-05-12T12:16:18.101Z,21.62
2019-05-12T12:19:01.248Z,21.47
2019-05-12T12:21:23.721Z,21.47
2019-05-12T12:23:55.496Z,21.35
2019-05-12T12:26:30.205Z,21.31
2019-05-12T12:29:00.572Z,21.26
2019-05-12T12:31:37.341Z,21.07
2019-05-12T12:34:07.427Z,21.03
2019-05-12T12:36:39.538Z,21.00
2019-05-12T12:39:13.159Z,20.99
2019-05-12T12:41:55.336Z,21.14
2019-05-12T12:44:18.235Z,21.39
2019-05-12T12:46:51.298Z,21.59
2019-05-12T12:49:23.465Z,21.87
2019-05-12T12:51:55.848Z,21.96
2019-05-12T12:54:27.290Z,22.15
2019-05-12T12:57:00.017Z,22.20
2019-05-12T12:59:33.395Z,22.34
2019-05-12T13:02:09.049Z,22.38
2019-05-12T13:04:39.553Z,22.47
2019-05-12T13:07:13.757Z,22.48
2019-05-12T13:09:45.047Z,22.57
2019-05-12T13:12:19.480Z,22.69
2019-05-12T13:14:53.162Z,22.72
2019-05-12T13:17:28.974Z,22.73
2019-05-12T13:19:58.757Z,22.73
2019-05-12T13:22:30.496Z,22.63
2019-05-12T13:25:04.401Z,22.46
2019-05-12T13:27:36.909Z,22.37
2019-05-12T13:30:18.548Z,22.24
2019-05-12T13:32:44.233Z,21.96
2019-05-12T13:35:20.029Z,21.81
2019-05-12T13:37:57.847Z,21.66
2019-05-12T13:40:29.773Z,21.61
2019-05-12T13:42:59.154Z,21.60
2019-05-12T13:45:30.853Z,21.51
2019-05-12T13:48:03.869Z,21.46
2019-05-12T13:50:35.967Z,21.41
2019-05-12T13:53:10.399Z,21.55
2019-05-12T13:55:45.485Z,21.61
2019-05-12T13:58:15.065Z,21.64
2019-05-12T14:01:00.613Z,21.59
2019-05-12T14:03:20.486Z,21.57
2019-05-12T14:05:55.063Z,21.62
2019-05-12T14:08:25.887Z,21.65
2019-05-12T14:10:59.710Z,21.48
2019-05-12T14:13:30.562Z,21.54
2019-05-12T14:16:05.741Z,21.53
2019-05-12T14:18:36.291Z,21.50
2019-05-12T14:21:09.198Z,21.41
2019-05-12T14:23:40.638Z,21.42
2019-05-12T14:26:13.826Z,21.41
2019-05-12T14:28:49.476Z,21.38
2019-05-12T14:31:29.492Z,21.29
2019-05-12T14:33:53.941Z,21.23
2019-05-12T14:36:26.452Z,21.16
2019-05-12T14:39:00.316Z,21.11
2019-05-12T14:41:34.092Z,21.02
2019-05-12T14:44:05.438Z,21.01
2019-05-12T14:46:40.079Z,21.02
2019-05-12T14:49:10.717Z,20.94
2019-05-12T14:51:44.357Z,20.59
2019-05-12T14:54:15.948Z,20.28
2019-05-12T14:56:53.669Z,19.47
2019-05-12T14:59:23.757Z,18.91
2019-05-12T15:01:59.184Z,18.27
2019-05-12T15:04:29.941Z,17.83
2019-05-12T15:07:05.891Z,17.43
2019-05-12T15:09:35.614Z,16.96
2019-05-12T15:12:07.692Z,16.67
2019-05-12T15:14:39.130Z,16.36
2019-05-12T15:17:13.653Z,16.17
2019-05-12T15:19:44.934Z,16.08
2019-05-12T15:22:16.567Z,15.87
2019-05-12T15:24:49.371Z,15.93
2019-05-12T15:27:38.040Z,15.88
2019-05-12T15:29:58.339Z,15.84
2019-05-12T15:32:28.701Z,15.84
2019-05-12T15:35:00.391Z,15.83
2019-05-12T15:37:35.003Z,15.79
2019-05-12T15:40:08.752Z,15.76
2019-05-12T15:42:41.560Z,15.88
2019-05-12T15:45:16.570Z,15.90
2019-05-12T15:47:47.939Z,15.92
2019-05-12T15:50:23.585Z,15.91
2019-05-12T15:52:57.196Z,15.97
2019-05-12T15:55:33.353Z,16.05
2019-05-12T15:58:06.032Z,16.10
2019-05-12T16:00:38.520Z,16.11
2019-05-12T16:03:10.480Z,16.16
2019-05-12T16:05:44.475Z,16.06
2019-05-12T16:08:16.254Z,16.12
2019-05-12T16:10:48.163Z,16.17
2019-05-12T16:13:19.643Z,16.14
2019-05-12T16:15:56.015Z,16.13
2019-05-12T16:18:26.712Z,16.11
2019-05-12T16:21:04.155Z,16.09
2019-05-12T16:23:34.116Z,16.04
2019-05-12T16:26:10.301Z,16.04
2019-05-12T16:28:39.574Z,15.96
2019-05-12T16:31:11.169Z,15.99
2019-05-12T16:33:43.657Z,15.94
2019-05-12T16:36:15.496Z,15.92
2019-05-12T16:38:50.152Z,15.86
2019-05-12T16:41:26.230Z,15.90
2019-05-12T16:43:54.837Z,15.89
2019-05-12T16:46:27.092Z,15.86
2019-05-12T16:48:59.211Z,15.87
2019-05-12T16:51:33.151Z,15.84
2019-05-12T16:54:04.371Z,15.82
2019-05-12T16:56:37.343Z,15.83
2019-05-12T16:59:16.835Z,15.82
2019-05-12T17:01:44.035Z,15.84
2019-05-12T17:04:15.678Z,15.86
2019-05-12T17:06:47.450Z,15.87
2019-05-12T17:09:19.511Z,15.89
2019-05-12T17:11:55.459Z,15.95
2019-05-12T17:14:28.599Z,15.95
2019-05-12T17:17:00.214Z,15.98
2019-05-12T17:19:33.948Z,15.99
2019-05-12T17:22:05.155Z,16.00
2019-05-12T17:24:38.247Z,16.01
2019-05-12T17:27:15.865Z,16.05
2019-05-12T17:29:44.968Z,16.07
2019-05-12T17:32:16.809Z,16.13
2019-05-12T17:34:49.040Z,16.21
2019-05-12T17:37:20.612Z,16.22
2019-05-12T17:39:52.396Z,16.22
2019-05-12T17:42:26.852Z,16.22
2019-05-12T17:44:57.807Z,16.17
2019-05-12T17:47:31.881Z,16.19
2019-05-12T17:50:10.242Z,16.23
2019-05-12T17:52:40.247Z,16.17
2019-05-12T17:55:14.563Z,16.19
2019-05-12T17:57:50.463Z,16.22
2019-05-12T18:00:23.498Z,16.28
2019-05-12T18:03:14.169Z,16.26
2019-05-12T18:05:28.480Z,16.31
2019-05-12T18:08:00.461Z,16.31
2019-05-12T18:10:32.500Z,16.27
2019-05-12T18:13:05.448Z,16.25
2019-05-12T18:15:38.037Z,16.23
2019-05-12T18:18:10.185Z,16.24
2019-05-12T18:20:44.543Z,16.26
2019-05-12T18:23:19.903Z,16.26
2019-05-12T18:25:48.784Z,16.22
2019-05-12T18:28:21.551Z,16.09
2019-05-12T18:30:54.045Z,16.08
2019-05-12T18:33:33.668Z,16.01
2019-05-12T18:35:59.610Z,15.91
2019-05-12T18:38:34.672Z,15.96
2019-05-12T18:41:05.156Z,15.93
2019-05-12T18:43:37.245Z,15.93
2019-05-12T18:46:09.405Z,15.92
2019-05-12T18:48:41.281Z,15.94
2019-05-12T18:51:17.005Z,15.92
2019-05-12T18:53:46.319Z,15.97
2019-05-12T18:56:21.710Z,15.94
2019-05-12T18:58:54.343Z,15.86
2019-05-12T19:01:25.807Z,15.90
2019-05-12T19:03:57.744Z,15.88
2019-05-12T19:06:29.607Z,15.89
2019-05-12T19:09:03.999Z,15.80
2019-05-12T19:11:41.627Z,15.70
2019-05-12T19:14:08.418Z,15.69
2019-05-12T19:16:40.725Z,15.67
2019-05-12T19:19:18.337Z,15.63
2019-05-12T19:21:46.750Z,15.57
2019-05-12T19:24:20.137Z,15.52
2019-05-12T19:26:54.181Z,15.51
2019-05-12T19:29:29.882Z,15.43
2019-05-12T19:31:59.272Z,15.38
2019-05-12T19:34:31.846Z,15.34
2019-05-12T19:37:06.386Z,15.30
2019-05-12T19:39:38.135Z,15.28
2019-05-12T19:42:15.981Z,15.22
2019-05-12T19:44:44.085Z,15.26
2019-05-12T19:47:21.362Z,15.26
2019-05-12T19:49:50.667Z,15.24
2019-05-12T19:52:24.374Z,15.17
2019-05-12T19:54:56.365Z,15.14
2019-05-12T19:57:28.100Z,15.12
2019-05-12T20:00:00.118Z,15.11
2019-05-12T20:02:34.092Z,15.10
2019-05-12T20:05:07.278Z,15.17
2019-05-12T20:07:39.425Z,15.19
2019-05-12T20:10:13.905Z,15.25
2019-05-12T20:12:48.934Z,15.21
2019-05-12T20:15:19.755Z,15.24
2019-05-12T20:17:53.546Z,15.25
2019-05-12T20:20:35.229Z,15.21
2019-05-12T20:22:58.913Z,15.16
2019-05-12T20:25:30.903Z,15.15
2019-05-12T20:28:10.832Z,15.18
2019-05-12T20:30:36.508Z,15.12
2019-05-12T20:33:08.285Z,15.17
2019-05-12T20:35:45.129Z,15.11
2019-05-12T20:38:14.917Z,15.07
2019-05-12T20:40:46.948Z,15.07
2019-05-12T20:43:24.118Z,15.06
2019-05-12T20:45:52.516Z,15.10
2019-05-12T20:48:26.487Z,15.10
2019-05-12T20:50:57.736Z,15.08
2019-05-12T20:53:31.836Z,15.06
2019-05-12T20:56:03.781Z,15.02
2019-05-12T20:58:43.105Z,15.02
2019-05-12T21:01:10.232Z,15.04
2019-05-12T21:03:46.332Z,15.07
2019-05-12T21:06:18.424Z,15.07
2019-05-12T21:08:53.859Z,15.10
2019-05-12T21:11:24.466Z,15.11
2019-05-12T21:14:00.942Z,15.09
2019-05-12T21:16:34.467Z,15.04
2019-05-12T21:19:10.604Z,15.05
2019-05-12T21:21:38.703Z,15.01
2019-05-12T21:24:10.760Z,15.04
2019-05-12T21:26:44.115Z,14.98
2019-05-12T21:29:18.992Z,15.02
2019-05-12T21:31:49.745Z,15.01
2019-05-12T21:34:23.364Z,15.00
2019-05-12T21:36:58.899Z,15.01
2019-05-12T21:39:29.809Z,15.03
2019-05-12T21:42:03.841Z,14.97
2019-05-12T21:44:35.543Z,15.00
2019-05-12T21:47:10.457Z,15.02
2019-05-12T21:49:42.715Z,15.01
2019-05-12T21:52:14.637Z,15.05
2019-05-12T21:54:46.280Z,15.07
2019-05-12T21:57:19.230Z,14.97
2019-05-12T21:59:53.166Z,14.93
2019-05-12T22:02:30.628Z,14.92
2019-05-12T22:04:59.358Z,14.89
2019-05-12T22:07:38.062Z,14.91
2019-05-12T22:10:06.793Z,14.91
2019-05-12T22:12:38.620Z,14.86
2019-05-12T22:15:19.596Z,14.89
2019-05-12T22:18:04.613Z,14.87
2019-05-12T22:20:36.502Z,14.87
2019-05-12T22:23:11.866Z,14.85
2019-05-12T22:25:43.544Z,14.87
2019-05-12T22:28:15.283Z,14.89
2019-05-12T22:30:47.260Z,14.91
2019-05-12T22:33:19.296Z,14.91
2019-05-12T22:36:02.965Z,14.92
2019-05-12T22:38:25.005Z,14.86
2019-05-12T22:40:59.624Z,14.85
2019-05-12T22:43:31.463Z,14.82
2019-05-12T22:46:05.768Z,14.83
2019-05-12T22:48:40.644Z,14.85
2019-05-12T22:51:23.120Z,14.80
2019-05-12T22:53:45.250Z,14.80
2019-05-12T22:56:18.181Z,14.81
2019-05-12T22:58:52.024Z,14.77
2019-05-12T23:01:23.592Z,14.80
2019-05-12T23:03:56.141Z,14.80
2019-05-12T23:06:33.528Z,14.79
2019-05-12T23:09:02.051Z,14.77
2019-05-12T23:11:37.903Z,14.77
2019-05-12T23:14:12.532Z,14.80
2019-05-12T23:16:44.277Z,14.79
2019-05-12T23:19:15.714Z,14.84
2019-05-12T23:21:49.289Z,14.81
2019-05-12T23:24:23.528Z,14.84
2019-05-12T23:26:54.918Z,14.82
2019-05-12T23:29:30.984Z,14.88
2019-05-12T23:32:05.919Z,14.84
2019-05-12T23:34:34.009Z,14.87
2019-05-12T23:37:07.252Z,14.88
2019-05-12T23:39:39.924Z,14.86
2019-05-12T23:42:13.656Z,14.80
2019-05-12T23:44:45.548Z,14.75
2019-05-12T23:47:17.481Z,14.83
2019-05-12T23:49:49.526Z,14.86
2019-05-12T23:52:21.533Z,14.86
2019-05-12T23:54:53.636Z,14.94
2019-05-12T23:57:25.919Z,14.90
2019-05-12T23:59:58.394Z,14.90
